Piermont, New Hampshire
Current Conditions -  °F | °C
As of 12:15 PM on Thursday 30 Oct 2014 (Local Time) from K1P1 Reporting Station
Scattered Clouds Scattered Clouds  
Wind Chill: 52°   Ceiling: Unl
Heat Index: 52°   Visibility: 10mi
Dew Point: 44°   Wind: 8mph
Humidity: 76%   Direction: 270°W
Pressure: 29.92"   Gusts: NA
Location:  43.97°N, 72.08°W
Report Text: K1P1 301615Z AUTO 27007KT 10SM SCT045 11/07 A2992 RMK AO2 T01090069
Loading
Personal Weather Stations






























Interactive Weather Map
Tropical Storm Tracking
New forecast layout! Learn more

10-Day Weather Forecast

Advertisements
Track Severe Weather on mobile